Time;durP1;ratioP1;P1;durP2;ratioP2;P2;SDS_P1;SDS_P2;PMS_P1;PMS_P2;Temp;Humidity;BMP_temperature;BMP_pressure;BME280_temperature;BME280_humidity;BME280_pressure;Samples;Min_cycle;Max_cycle;Signal;HPM_P1;HPM_P2
2022/01/11 00:00:36;;;;;;;;;;;-1.00;99.90;;;;;;5094563;28;19924;-78
2022/01/11 00:03:04;;;;;;;;;;;-0.90;99.90;;;;;;5084979;28;19924;-79
2022/01/11 00:05:34;;;;;;;;;;;-0.90;99.90;;;;;;5084080;28;19932;-79
2022/01/11 00:08:01;;;;;;;;;;;-0.90;99.90;;;;;;5091669;28;19928;-77
2022/01/11 00:10:31;;;;;;;;;;;-0.90;99.90;;;;;;5092303;28;19929;-77
2022/01/11 00:12:59;;;;;;;;;;;-0.90;99.90;;;;;;5091105;28;19968;-78
2022/01/11 00:15:25;;;;;;;;;;;-0.90;99.90;;;;;;5087820;28;20010;-78
2022/01/11 00:17:54;;;;;;;;;;;-0.90;99.90;;;;;;5087446;28;19924;-78
2022/01/11 00:20:21;;;;;;;;;;;-0.90;99.90;;;;;;5089776;28;19924;-78
2022/01/11 00:24:27;;;;;;;;;;;-0.90;99.90;;;;;;5089885;28;20019;-77
2022/01/11 00:25:44;;;;;;;;;;;-1.00;99.90;;;;;;5091731;28;19925;-78
2022/01/11 00:28:12;;;;;;;;;;;-1.00;99.90;;;;;;5090746;28;19921;-79
2022/01/11 00:30:41;;;;;;;;;;;-1.00;99.90;;;;;;5085737;28;19924;-78
2022/01/11 00:33:13;;;;;;;;;;;-1.00;99.90;;;;;;5083145;28;19964;-79
2022/01/11 00:35:41;;;;;;;;;;;-1.00;99.90;;;;;;5081523;28;19925;-79
2022/01/11 00:38:09;;;;;;;;;;;-1.00;99.90;;;;;;5084237;28;19928;-78
2022/01/11 00:40:36;;;;;;;;;;;-1.00;99.90;;;;;;5088461;28;19951;-79
2022/01/11 00:43:05;;;;;;;;;;;-1.00;99.90;;;;;;5082644;28;19932;-79
2022/01/11 00:45:31;;;;;;;;;;;-0.90;99.90;;;;;;5085343;28;19963;-79
2022/01/11 00:47:58;;;;;;;;;;;-1.00;99.90;;;;;;5081660;28;19982;-79
2022/01/11 00:50:26;;;;;;;;;;;-1.00;99.90;;;;;;5080360;28;19924;-79
2022/01/11 00:52:52;;;;;;;;;;;-1.10;99.90;;;;;;5079805;28;19932;-80
2022/01/11 00:55:19;;;;;;;;;;;-1.10;99.90;;;;;;5079198;28;20333;-78
2022/01/11 00:57:45;;;;;;;;;;;-1.20;99.90;;;;;;5079255;28;19959;-79
2022/01/11 01:00:12;;;;;;;;;;;-1.20;99.90;;;;;;5079700;28;19924;-79
2022/01/11 01:02:39;;;;;;;;;;;-1.30;99.90;;;;;;5079776;28;19959;-78
2022/01/11 01:05:06;;;;;;;;;;;-1.40;99.90;;;;;;5079991;28;19971;-80
2022/01/11 01:07:34;;;;;;;;;;;-1.40;99.90;;;;;;5080293;28;19925;-79
2022/01/11 01:10:03;;;;;;;;;;;-1.50;99.90;;;;;;5079668;28;19924;-79
2022/01/11 01:12:30;;;;;;;;;;;-1.40;99.90;;;;;;5079021;28;19925;-80
2022/01/11 01:14:56;;;;;;;;;;;-1.30;99.90;;;;;;5079524;28;19925;-80
2022/01/11 01:17:23;;;;;;;;;;;-1.30;99.90;;;;;;5079064;28;20294;-80
2022/01/11 01:19:49;;;;;;;;;;;-1.40;99.90;;;;;;5079132;28;20310;-79
2022/01/11 01:22:16;;;;;;;;;;;-1.30;99.90;;;;;;5079249;28;19932;-79
2022/01/11 01:24:44;;;;;;;;;;;-1.30;99.90;;;;;;5079116;28;19924;-79
2022/01/11 01:27:10;;;;;;;;;;;-1.30;99.90;;;;;;5080670;28;19970;-79
2022/01/11 01:29:38;;;;;;;;;;;-1.40;99.90;;;;;;5079250;28;20003;-78
2022/01/11 01:32:05;;;;;;;;;;;-1.40;99.90;;;;;;5078285;28;19925;-78
2022/01/11 01:34:31;;;;;;;;;;;-1.30;99.90;;;;;;5081765;28;19975;-79
2022/01/11 01:36:58;;;;;;;;;;;-1.40;99.90;;;;;;5080906;28;19987;-79
2022/01/11 01:39:25;;;;;;;;;;;-1.20;99.90;;;;;;5079411;28;19968;-79
2022/01/11 01:41:53;;;;;;;;;;;-1.30;99.90;;;;;;5094356;28;19984;-77
2022/01/11 01:44:20;;;;;;;;;;;-1.30;99.90;;;;;;5080069;28;19982;-79
2022/01/11 01:46:47;;;;;;;;;;;-1.20;99.90;;;;;;5078558;28;20286;-79
2022/01/11 01:49:17;;;;;;;;;;;-1.30;99.90;;;;;;5080403;28;19925;-80
2022/01/11 01:51:44;;;;;;;;;;;-1.50;99.90;;;;;;5079300;28;19924;-80
2022/01/11 01:54:10;;;;;;;;;;;-1.60;99.90;;;;;;5079733;28;19952;-77
2022/01/11 01:56:37;;;;;;;;;;;-1.60;99.90;;;;;;5081900;28;19963;-78
2022/01/11 01:59:05;;;;;;;;;;;-1.50;99.90;;;;;;5076962;28;19925;-78
2022/01/11 02:01:35;;;;;;;;;;;-1.50;99.90;;;;;;5077601;28;19947;-78
2022/01/11 02:04:01;;;;;;;;;;;-1.50;99.90;;;;;;5089646;28;19924;-77
2022/01/11 02:06:28;;;;;;;;;;;-1.50;99.90;;;;;;5089343;28;20415;-78
2022/01/11 02:08:54;;;;;;;;;;;-1.50;99.90;;;;;;5082438;28;19968;-79
2022/01/11 02:11:21;;;;;;;;;;;-1.50;99.90;;;;;;5078616;28;19924;-79
2022/01/11 02:13:48;;;;;;;;;;;-1.50;99.90;;;;;;5080031;28;19963;-78
2022/01/11 02:16:19;;;;;;;;;;;-1.50;99.90;;;;;;5079585;28;19925;-79
2022/01/11 02:18:46;;;;;;;;;;;-1.40;99.90;;;;;;5081445;28;19931;-80
2022/01/11 02:21:14;;;;;;;;;;;-1.40;99.90;;;;;;5088673;28;20320;-78
2022/01/11 02:23:41;;;;;;;;;;;-1.40;99.90;;;;;;5088907;28;19924;-78
2022/01/11 02:26:07;;;;;;;;;;;-1.40;99.90;;;;;;5088509;28;19971;-77
2022/01/11 02:28:34;;;;;;;;;;;-1.40;99.90;;;;;;5084148;28;20403;-80
2022/01/11 02:31:03;;;;;;;;;;;-1.40;99.90;;;;;;5078217;28;19931;-79
2022/01/11 02:33:33;;;;;;;;;;;-1.40;99.90;;;;;;5078050;28;19935;-78
2022/01/11 02:35:59;;;;;;;;;;;-1.40;99.90;;;;;;5077739;28;20015;-78
2022/01/11 02:38:27;;;;;;;;;;;-1.30;99.90;;;;;;5078115;28;20426;-78
2022/01/11 02:40:54;;;;;;;;;;;-1.30;99.90;;;;;;5079321;28;19924;-78
2022/01/11 02:43:20;;;;;;;;;;;-1.30;99.90;;;;;;5085054;28;19964;-79
2022/01/11 02:45:47;;;;;;;;;;;-1.20;99.90;;;;;;5091525;28;19924;-78
2022/01/11 02:48:13;;;;;;;;;;;-1.30;99.90;;;;;;5090110;28;19967;-79
2022/01/11 02:50:39;;;;;;;;;;;-1.40;99.90;;;;;;5083002;28;19928;-80
2022/01/11 02:53:06;;;;;;;;;;;-1.40;99.90;;;;;;5081428;28;20217;-79
2022/01/11 02:55:37;;;;;;;;;;;-1.40;99.90;;;;;;5078081;28;19959;-79
2022/01/11 02:58:03;;;;;;;;;;;-1.40;99.90;;;;;;5076784;28;19984;-79
2022/01/11 03:00:30;;;;;;;;;;;-1.40;99.90;;;;;;5087848;28;19924;-77
2022/01/11 03:02:56;;;;;;;;;;;-1.50;99.90;;;;;;5090346;28;19924;-77
2022/01/11 03:05:23;;;;;;;;;;;-1.50;99.90;;;;;;5088950;28;19924;-79
2022/01/11 03:07:49;;;;;;;;;;;-1.50;99.90;;;;;;5080226;28;19967;-79
2022/01/11 03:10:24;;;;;;;;;;;-1.50;99.90;;;;;;5081541;28;19995;-79
2022/01/11 03:12:52;;;;;;;;;;;-1.50;99.90;;;;;;5079505;28;19924;-80
2022/01/11 03:15:18;;;;;;;;;;;-1.50;99.90;;;;;;5086073;28;19924;-80
2022/01/11 03:17:46;;;;;;;;;;;-1.50;99.90;;;;;;5078360;28;19924;-80
2022/01/11 03:20:12;;;;;;;;;;;-1.50;99.90;;;;;;5078364;28;19930;-80
2022/01/11 03:22:39;;;;;;;;;;;-1.60;99.90;;;;;;5077988;28;19963;-80
2022/01/11 03:25:06;;;;;;;;;;;-1.60;99.90;;;;;;5077647;28;19932;-79
2022/01/11 03:27:32;;;;;;;;;;;-1.60;99.90;;;;;;5077921;28;19931;-79
2022/01/11 03:30:00;;;;;;;;;;;-1.50;99.90;;;;;;5078021;28;20089;-79
2022/01/11 03:32:27;;;;;;;;;;;-1.40;99.90;;;;;;5076778;28;20376;-79
2022/01/11 03:34:53;;;;;;;;;;;-1.50;99.90;;;;;;5077051;28;19925;-79
2022/01/11 03:37:20;;;;;;;;;;;-1.60;99.90;;;;;;5077478;28;19930;-79
2022/01/11 03:39:47;;;;;;;;;;;-1.60;99.90;;;;;;5090448;28;19967;-78
2022/01/11 03:42:13;;;;;;;;;;;-1.50;99.90;;;;;;5090670;28;20390;-78
2022/01/11 03:44:40;;;;;;;;;;;-1.60;99.90;;;;;;5079620;28;19982;-79
2022/01/11 03:47:08;;;;;;;;;;;-1.50;99.90;;;;;;5078479;28;19925;-79
2022/01/11 03:49:34;;;;;;;;;;;-1.30;99.90;;;;;;5077056;28;19924;-80
2022/01/11 03:52:01;;;;;;;;;;;-1.30;99.90;;;;;;5078166;28;19924;-79
2022/01/11 03:56:56;;;;;;;;;;;-1.20;99.90;;;;;;5096605;23;19924;-81
2022/01/11 03:59:23;;;;;;;;;;;-1.20;99.90;;;;;;5078745;28;20367;-80
2022/01/11 04:01:51;;;;;;;;;;;-1.20;99.90;;;;;;5081565;28;19924;-83
2022/01/11 04:04:19;;;;;;;;;;;-1.40;99.90;;;;;;5083282;28;19925;-81
2022/01/11 04:06:46;;;;;;;;;;;-1.60;99.90;;;;;;5081000;28;19979;-80
2022/01/11 04:09:12;;;;;;;;;;;-1.60;99.90;;;;;;5081471;28;19932;-82
2022/01/11 04:11:39;;;;;;;;;;;-1.40;99.90;;;;;;5080090;28;20395;-82
2022/01/11 04:14:05;;;;;;;;;;;-1.30;99.90;;;;;;5081307;28;20375;-82
2022/01/11 04:16:32;;;;;;;;;;;-1.20;99.90;;;;;;5081164;28;19928;-80
2022/01/11 04:18:58;;;;;;;;;;;-1.30;99.90;;;;;;5080111;28;19924;-80
2022/01/11 04:21:26;;;;;;;;;;;-1.20;99.90;;;;;;5080129;28;19924;-80
2022/01/11 04:23:53;;;;;;;;;;;-1.10;99.90;;;;;;5079869;28;19924;-81
2022/01/11 04:26:20;;;;;;;;;;;-1.10;99.90;;;;;;5079707;28;20421;-81
2022/01/11 04:28:46;;;;;;;;;;;-1.20;99.90;;;;;;5079038;28;19924;-81
2022/01/11 04:31:13;;;;;;;;;;;-1.10;99.90;;;;;;5080229;28;19924;-79
2022/01/11 04:33:43;;;;;;;;;;;-1.10;99.90;;;;;;5099284;28;19924;-80
2022/01/11 04:36:10;;;;;;;;;;;-1.00;99.90;;;;;;5095008;28;19924;-78
2022/01/11 04:38:38;;;;;;;;;;;-1.00;99.90;;;;;;5081988;28;19986;-82
2022/01/11 04:41:05;;;;;;;;;;;-1.00;99.90;;;;;;5095975;28;19913;-81
2022/01/11 04:43:31;;;;;;;;;;;-0.90;99.90;;;;;;5098528;28;19924;-81
2022/01/11 04:45:58;;;;;;;;;;;-0.90;99.90;;;;;;5085846;28;19935;-80
2022/01/11 04:48:25;;;;;;;;;;;-1.00;99.90;;;;;;5084839;28;19925;-79
2022/01/11 04:50:52;;;;;;;;;;;-1.10;99.90;;;;;;5082046;28;20001;-81
2022/01/11 04:53:18;;;;;;;;;;;-1.20;99.90;;;;;;5079859;28;19967;-81
2022/01/11 04:55:46;;;;;;;;;;;-1.20;99.90;;;;;;5079905;28;19963;-80
2022/01/11 04:58:12;;;;;;;;;;;-1.30;99.90;;;;;;5081129;28;19968;-80
2022/01/11 05:00:39;;;;;;;;;;;-1.30;99.90;;;;;;5082863;28;19931;-81
2022/01/11 05:03:05;;;;;;;;;;;-1.30;99.90;;;;;;5079634;28;19924;-80
2022/01/11 05:05:32;;;;;;;;;;;-1.20;99.90;;;;;;5079392;28;20025;-81
2022/01/11 05:07:59;;;;;;;;;;;-1.10;99.90;;;;;;5079115;28;19974;-80
2022/01/11 05:10:25;;;;;;;;;;;-1.10;99.90;;;;;;5080000;28;19924;-83
2022/01/11 05:12:53;;;;;;;;;;;-1.10;99.90;;;;;;5078913;28;19936;-81
2022/01/11 05:15:20;;;;;;;;;;;-1.00;99.90;;;;;;5079068;28;19950;-81
2022/01/11 05:17:47;;;;;;;;;;;-1.00;99.90;;;;;;5078179;28;19947;-79
2022/01/11 05:20:14;;;;;;;;;;;-1.00;99.90;;;;;;5078582;28;19974;-80
2022/01/11 05:22:44;;;;;;;;;;;-1.10;99.90;;;;;;5078267;28;19947;-81
2022/01/11 05:25:13;;;;;;;;;;;-1.10;99.90;;;;;;5078279;28;19931;-80
2022/01/11 05:27:40;;;;;;;;;;;-1.00;99.90;;;;;;5078195;28;20035;-81
2022/01/11 05:30:09;;;;;;;;;;;-1.00;99.90;;;;;;5078530;28;19970;-80
2022/01/11 05:32:36;;;;;;;;;;;-1.00;99.90;;;;;;5078097;28;19925;-81
2022/01/11 05:35:03;;;;;;;;;;;-1.50;99.90;;;;;;5078430;28;19935;-82
2022/01/11 05:37:29;;;;;;;;;;;-1.20;99.90;;;;;;5077520;28;20398;-80
2022/01/11 05:39:56;;;;;;;;;;;-1.20;99.90;;;;;;5078200;28;19932;-80
2022/01/11 05:42:24;;;;;;;;;;;-1.20;99.90;;;;;;5078461;28;19936;-81
2022/01/11 05:44:50;;;;;;;;;;;-1.20;99.90;;;;;;5079713;28;19978;-79
2022/01/11 05:47:18;;;;;;;;;;;-1.20;99.90;;;;;;5083332;28;20018;-79
2022/01/11 05:49:44;;;;;;;;;;;-1.10;99.90;;;;;;5084400;28;19936;-79
2022/01/11 05:52:11;;;;;;;;;;;-1.00;99.90;;;;;;5080944;28;19924;-81
2022/01/11 05:54:37;;;;;;;;;;;-1.00;99.90;;;;;;5078269;28;19964;-81
2022/01/11 05:57:04;;;;;;;;;;;-1.00;99.90;;;;;;5078368;28;19924;-80
2022/01/11 05:59:31;;;;;;;;;;;-0.90;99.90;;;;;;5077766;28;19925;-80
2022/01/11 06:02:00;;;;;;;;;;;-1.00;99.90;;;;;;5078104;28;19946;-80
2022/01/11 06:04:28;;;;;;;;;;;-1.10;99.90;;;;;;5081446;28;19936;-79
2022/01/11 06:06:54;;;;;;;;;;;-1.10;99.90;;;;;;5084403;28;19967;-81
2022/01/11 06:09:26;;;;;;;;;;;-1.10;99.90;;;;;;5084392;28;19963;-80
2022/01/11 06:11:52;;;;;;;;;;;-1.00;99.90;;;;;;5084496;28;20027;-80
2022/01/11 06:14:18;;;;;;;;;;;-1.10;99.90;;;;;;5078523;28;19963;-81
2022/01/11 06:16:45;;;;;;;;;;;-1.20;99.90;;;;;;5078721;28;20072;-82
2022/01/11 06:19:11;;;;;;;;;;;-1.20;99.90;;;;;;5079385;28;19959;-81
2022/01/11 06:21:39;;;;;;;;;;;-0.90;99.90;;;;;;5078563;28;19960;-81
2022/01/11 06:24:07;;;;;;;;;;;-1.20;99.90;;;;;;5078717;28;19931;-82
2022/01/11 06:26:34;;;;;;;;;;;-1.10;99.90;;;;;;5078208;28;20019;-82
2022/01/11 06:29:01;;;;;;;;;;;-1.10;99.90;;;;;;5077866;28;19924;-82
2022/01/11 06:31:28;;;;;;;;;;;-1.10;99.90;;;;;;5077587;28;19924;-81
2022/01/11 06:33:55;;;;;;;;;;;-1.00;99.90;;;;;;5076891;28;20386;-82
2022/01/11 06:36:21;;;;;;;;;;;-1.00;99.90;;;;;;5078996;28;19924;-82
2022/01/11 06:38:49;;;;;;;;;;;-1.00;99.90;;;;;;5077550;28;20030;-81
2022/01/11 06:41:16;;;;;;;;;;;-1.20;99.90;;;;;;5079082;28;19967;-79
2022/01/11 06:43:44;;;;;;;;;;;-1.10;99.90;;;;;;5084183;28;19924;-79
2022/01/11 06:46:10;;;;;;;;;;;-1.10;99.90;;;;;;5084200;28;19925;-79
2022/01/11 06:48:37;;;;;;;;;;;-1.10;99.90;;;;;;5083280;28;19925;-80
2022/01/11 06:51:03;;;;;;;;;;;-1.00;99.90;;;;;;5084166;28;19931;-80
2022/01/11 06:53:31;;;;;;;;;;;-1.00;99.90;;;;;;5080398;28;20023;-81
2022/01/11 06:55:59;;;;;;;;;;;-1.10;99.90;;;;;;5078176;28;19998;-81
2022/01/11 06:58:25;;;;;;;;;;;-1.10;99.90;;;;;;5079731;28;19925;-79
2022/01/11 07:00:51;;;;;;;;;;;-1.10;99.90;;;;;;5078982;28;19983;-81
2022/01/11 07:03:18;;;;;;;;;;;-1.10;99.90;;;;;;5078289;28;19974;-80
2022/01/11 07:05:45;;;;;;;;;;;-1.10;99.90;;;;;;5085376;28;19924;-81
2022/01/11 07:08:12;;;;;;;;;;;-1.00;99.90;;;;;;5084433;28;19940;-82
2022/01/11 07:10:38;;;;;;;;;;;-1.00;99.90;;;;;;5080620;28;19924;-82
2022/01/11 07:13:06;;;;;;;;;;;-1.10;99.90;;;;;;5079123;28;20399;-81
2022/01/11 07:15:33;;;;;;;;;;;-1.00;99.90;;;;;;5080557;28;20387;-82
2022/01/11 07:18:04;;;;;;;;;;;-1.10;99.90;;;;;;5076808;28;19947;-82
2022/01/11 07:20:30;;;;;;;;;;;-1.10;99.90;;;;;;5077734;28;20019;-81
2022/01/11 07:22:56;;;;;;;;;;;-1.10;99.90;;;;;;5077095;28;19971;-82
2022/01/11 07:25:23;;;;;;;;;;;-1.10;99.90;;;;;;5076495;28;19937;-82
2022/01/11 07:27:50;;;;;;;;;;;-0.90;99.90;;;;;;5076995;28;19931;-81
2022/01/11 07:30:17;;;;;;;;;;;-1.10;99.90;;;;;;5077247;28;19925;-82
2022/01/11 07:32:44;;;;;;;;;;;-1.00;99.90;;;;;;5077299;28;20445;-82
2022/01/11 07:35:10;;;;;;;;;;;-0.90;99.90;;;;;;5076978;28;19925;-82
2022/01/11 07:37:37;;;;;;;;;;;-1.00;99.90;;;;;;5080604;28;19924;-82
2022/01/11 07:40:04;;;;;;;;;;;-1.00;99.90;;;;;;5083488;28;19932;-82
2022/01/11 07:42:30;;;;;;;;;;;-1.00;99.90;;;;;;5082024;28;19974;-82
2022/01/11 07:44:57;;;;;;;;;;;-1.00;99.90;;;;;;5082158;28;19924;-82
2022/01/11 07:47:25;;;;;;;;;;;-0.90;99.90;;;;;;5092418;28;19925;-81
2022/01/11 07:49:52;;;;;;;;;;;-0.90;99.90;;;;;;5099030;28;20096;-80
2022/01/11 07:52:18;;;;;;;;;;;-0.90;99.90;;;;;;5099258;28;19924;-82
2022/01/11 07:54:45;;;;;;;;;;;-1.00;99.90;;;;;;5099345;28;19931;-79
2022/01/11 07:57:12;;;;;;;;;;;-1.40;99.90;;;;;;5100408;28;19924;-82
2022/01/11 07:59:39;;;;;;;;;;;-1.60;99.90;;;;;;5100658;28;19925;-82
2022/01/11 08:02:07;;;;;;;;;;;-0.80;99.90;;;;;;5096656;28;19924;-81
2022/01/11 08:07:11;;;;;;;;;;;-1.10;99.90;;;;;;5099085;23;20016;-82
2022/01/11 08:12:44;;;;;;;;;;;-1.10;99.90;;;;;;5083430;28;19929;-80
2022/01/11 08:15:42;;;;;;;;;;;-1.10;99.90;;;;;;5088988;28;19999;-81
2022/01/11 08:20:39;;;;;;;;;;;-0.90;99.90;;;;;;5100973;23;19924;-80
2022/01/11 08:23:07;;;;;;;;;;;-1.00;99.90;;;;;;5081222;28;19924;-80
2022/01/11 08:25:34;;;;;;;;;;;-0.80;99.90;;;;;;5082150;28;19924;-80
2022/01/11 08:28:00;;;;;;;;;;;-1.10;99.90;;;;;;5081438;28;19924;-79
2022/01/11 08:30:27;;;;;;;;;;;-0.90;99.90;;;;;;5080455;28;20001;-80
2022/01/11 08:32:53;;;;;;;;;;;-0.90;99.90;;;;;;5080425;28;19924;-79
2022/01/11 08:35:20;;;;;;;;;;;-1.00;99.90;;;;;;5080352;28;20449;-80
2022/01/11 08:37:46;;;;;;;;;;;-1.00;99.90;;;;;;5080094;28;19924;-80
2022/01/11 08:40:14;;;;;;;;;;;-0.90;99.90;;;;;;5080612;28;19925;-80
2022/01/11 08:42:41;;;;;;;;;;;-0.90;99.90;;;;;;5081435;28;19928;-79
2022/01/11 08:45:08;;;;;;;;;;;-0.90;99.90;;;;;;5080618;28;20391;-81
2022/01/11 08:47:35;;;;;;;;;;;-0.90;99.90;;;;;;5080101;28;19924;-80
2022/01/11 08:50:02;;;;;;;;;;;-0.80;99.90;;;;;;5081455;28;19924;-80
2022/01/11 08:52:29;;;;;;;;;;;-0.90;99.90;;;;;;5089121;28;19929;-79
2022/01/11 08:54:55;;;;;;;;;;;-0.80;99.90;;;;;;5087528;28;19924;-79
2022/01/11 08:57:23;;;;;;;;;;;-0.80;99.90;;;;;;5087256;28;19924;-79
2022/01/11 08:59:50;;;;;;;;;;;-0.80;99.90;;;;;;5081013;28;19925;-80
2022/01/11 09:02:20;;;;;;;;;;;-0.80;99.90;;;;;;5080173;28;19924;-80
2022/01/11 09:04:47;;;;;;;;;;;-0.70;99.90;;;;;;5080353;28;19987;-79
2022/01/11 09:07:14;;;;;;;;;;;-0.70;99.90;;;;;;5080646;28;20341;-79
2022/01/11 09:09:40;;;;;;;;;;;-0.60;99.90;;;;;;5080446;28;19967;-79
2022/01/11 09:12:08;;;;;;;;;;;-0.60;99.90;;;;;;5081424;28;19932;-80
2022/01/11 09:14:38;;;;;;;;;;;-0.70;99.90;;;;;;5080453;28;19944;-80
2022/01/11 09:17:04;;;;;;;;;;;-0.70;99.90;;;;;;5080567;28;19974;-80
2022/01/11 09:19:31;;;;;;;;;;;-0.60;99.90;;;;;;5080605;28;19924;-80
2022/01/11 09:21:58;;;;;;;;;;;-0.60;99.90;;;;;;5080586;28;19924;-80
2022/01/11 09:24:29;;;;;;;;;;;-0.50;99.90;;;;;;5081355;28;19931;-81
2022/01/11 09:26:56;;;;;;;;;;;-0.50;99.90;;;;;;5081406;28;20058;-80
2022/01/11 09:29:24;;;;;;;;;;;-0.50;99.90;;;;;;5080693;28;19924;-80
2022/01/11 09:31:52;;;;;;;;;;;-0.60;99.90;;;;;;5080189;28;19925;-80
2022/01/11 09:34:18;;;;;;;;;;;-0.70;99.90;;;;;;5080197;28;19970;-80
2022/01/11 09:36:45;;;;;;;;;;;-0.60;99.90;;;;;;5080303;28;19924;-80
2022/01/11 09:39:11;;;;;;;;;;;-0.70;99.90;;;;;;5080171;28;19925;-80
2022/01/11 09:41:38;;;;;;;;;;;-0.70;99.90;;;;;;5082314;28;19955;-80
2022/01/11 09:44:06;;;;;;;;;;;-0.70;99.90;;;;;;5080799;28;19924;-81
2022/01/11 09:46:32;;;;;;;;;;;-0.70;99.90;;;;;;5081059;28;19928;-80
2022/01/11 09:49:00;;;;;;;;;;;-0.70;99.90;;;;;;5080822;28;19928;-80
2022/01/11 09:51:27;;;;;;;;;;;-0.70;99.90;;;;;;5081732;28;19931;-79
2022/01/11 09:53:54;;;;;;;;;;;-0.70;99.90;;;;;;5082041;28;20294;-80
2022/01/11 09:56:20;;;;;;;;;;;-0.80;99.90;;;;;;5081951;28;19973;-80
2022/01/11 09:58:47;;;;;;;;;;;-0.70;99.90;;;;;;5086347;28;19924;-80
2022/01/11 10:01:13;;;;;;;;;;;-0.60;99.90;;;;;;5086307;28;20010;-80
2022/01/11 10:03:56;;;;;;;;;;;-0.60;99.90;;;;;;5087692;28;19931;-80
2022/01/11 10:06:25;;;;;;;;;;;-0.50;99.90;;;;;;5081335;28;19970;-80
2022/01/11 10:09:07;;;;;;;;;;;-0.40;99.90;;;;;;5081378;28;19974;-80
2022/01/11 10:11:34;;;;;;;;;;;-0.40;99.90;;;;;;5082943;28;20341;-79
2022/01/11 10:14:16;;;;;;;;;;;-0.40;99.90;;;;;;5083587;28;20014;-80
2022/01/11 10:16:43;;;;;;;;;;;-0.40;99.90;;;;;;5083313;28;20316;-80
2022/01/11 10:19:19;;;;;;;;;;;-0.30;99.90;;;;;;5088725;28;19936;-81
2022/01/11 10:21:49;;;;;;;;;;;-0.20;99.90;;;;;;5095446;28;20341;-81
2022/01/11 10:24:24;;;;;;;;;;;-0.10;99.90;;;;;;5096198;28;19975;-80
2022/01/11 10:26:51;;;;;;;;;;;-0.10;99.90;;;;;;5087528;28;19924;-80
2022/01/11 10:29:28;;;;;;;;;;;-0.10;99.90;;;;;;5089668;28;19925;-79
2022/01/11 10:31:55;;;;;;;;;;;-0.20;99.90;;;;;;5092188;28;19924;-80
2022/01/11 10:34:26;;;;;;;;;;;-0.20;99.90;;;;;;5089056;28;19970;-80
2022/01/11 10:36:54;;;;;;;;;;;-0.20;99.90;;;;;;5087357;28;19947;-80
2022/01/11 10:39:38;;;;;;;;;;;1.40;99.90;;;;;;5101887;28;20443;-80
2022/01/11 10:42:06;;;;;;;;;;;0.00;99.90;;;;;;5103066;28;19931;-80
2022/01/11 10:44:43;;;;;;;;;;;0.00;99.90;;;;;;5101434;28;19928;-80
2022/01/11 10:47:09;;;;;;;;;;;0.00;99.90;;;;;;5102506;28;19925;-80
2022/01/11 10:49:36;;;;;;;;;;;-0.10;99.90;;;;;;5102781;28;19925;-80
2022/01/11 10:52:15;;;;;;;;;;;-0.10;99.90;;;;;;5106228;28;19928;-80
2022/01/11 10:54:43;;;;;;;;;;;-0.10;99.90;;;;;;5098978;28;19925;-79
2022/01/11 10:57:14;;;;;;;;;;;-0.10;99.90;;;;;;5096486;28;19925;-80
2022/01/11 10:59:41;;;;;;;;;;;-0.30;99.90;;;;;;5098078;28;20350;-80
2022/01/11 11:02:12;;;;;;;;;;;-0.20;99.90;;;;;;5097210;28;19935;-80
2022/01/11 11:04:39;;;;;;;;;;;-0.10;99.90;;;;;;5096980;28;20433;-79
2022/01/11 11:07:12;;;;;;;;;;;-0.10;99.90;;;;;;5096745;28;19924;-79
2022/01/11 11:09:46;;;;;;;;;;;0.00;99.90;;;;;;5097050;28;19924;-80
2022/01/11 11:12:13;;;;;;;;;;;0.10;99.90;;;;;;5100810;28;19925;-80
2022/01/11 11:14:47;;;;;;;;;;;0.10;99.90;;;;;;5104881;28;19924;-80
2022/01/11 11:17:25;;;;;;;;;;;0.00;99.90;;;;;;5103641;28;19924;-79
2022/01/11 11:19:55;;;;;;;;;;;0.00;99.90;;;;;;5100594;28;19931;-80
2022/01/11 11:22:22;;;;;;;;;;;0.10;99.90;;;;;;5097851;28;19960;-80
2022/01/11 11:24:50;;;;;;;;;;;0.10;99.90;;;;;;5096855;28;19935;-80
2022/01/11 11:27:16;;;;;;;;;;;0.10;99.90;;;;;;5096482;28;19956;-80
2022/01/11 11:29:43;;;;;;;;;;;0.20;99.90;;;;;;5095937;28;19961;-80
2022/01/11 11:32:09;;;;;;;;;;;-0.20;99.90;;;;;;5095536;28;19950;-80
2022/01/11 11:34:36;;;;;;;;;;;0.10;99.90;;;;;;5102357;28;19924;-79
2022/01/11 11:37:05;;;;;;;;;;;0.10;99.90;;;;;;5104171;28;19946;-79
2022/01/11 11:39:32;;;;;;;;;;;0.10;99.90;;;;;;5124682;28;19924;-79
2022/01/11 11:42:01;;;;;;;;;;;0.00;99.90;;;;;;5126033;28;20283;-79
2022/01/11 11:44:28;;;;;;;;;;;0.00;99.90;;;;;;5121425;28;19983;-79
2022/01/11 11:46:56;;;;;;;;;;;0.00;99.90;;;;;;5128254;28;19924;-79
2022/01/11 11:49:37;;;;;;;;;;;-0.10;99.90;;;;;;5125971;28;19932;-79
2022/01/11 11:52:06;;;;;;;;;;;0.00;99.90;;;;;;5118310;28;19924;-79
2022/01/11 11:54:46;;;;;;;;;;;-0.10;99.90;;;;;;5118939;28;19909;-79
2022/01/11 11:57:15;;;;;;;;;;;0.00;99.90;;;;;;5116492;28;19950;-79
2022/01/11 11:59:43;;;;;;;;;;;-0.10;99.90;;;;;;5118116;28;19924;-79
2022/01/11 12:02:10;;;;;;;;;;;0.00;99.90;;;;;;5119891;28;19932;-79
2022/01/11 12:04:53;;;;;;;;;;;0.10;99.90;;;;;;5117983;28;19912;-79
2022/01/11 12:07:27;;;;;;;;;;;0.10;99.90;;;;;;5115115;28;19925;-79
2022/01/11 12:09:53;;;;;;;;;;;0.20;99.90;;;;;;5114168;28;19924;-79
2022/01/11 12:12:35;;;;;;;;;;;0.40;99.90;;;;;;5118600;28;19990;-79
2022/01/11 12:15:23;;;;;;;;;;;0.30;99.90;;;;;;5117685;28;20014;-80
2022/01/11 12:18:09;;;;;;;;;;;0.30;99.90;;;;;;5117872;28;19924;-80
2022/01/11 12:20:43;;;;;;;;;;;0.20;99.90;;;;;;5116236;28;19924;-80
2022/01/11 12:23:10;;;;;;;;;;;0.30;99.90;;;;;;5103073;28;19924;-82
2022/01/11 12:25:42;;;;;;;;;;;0.20;99.90;;;;;;5102661;28;19924;-81
2022/01/11 12:28:14;;;;;;;;;;;0.30;99.90;;;;;;5103406;28;20034;-80
2022/01/11 12:30:42;;;;;;;;;;;0.30;99.90;;;;;;5117885;28;19924;-80
2022/01/11 12:33:16;;;;;;;;;;;0.30;99.90;;;;;;5117961;28;19950;-79
2022/01/11 12:35:53;;;;;;;;;;;0.20;99.90;;;;;;5113643;28;20007;-79
2022/01/11 12:38:20;;;;;;;;;;;0.30;99.90;;;;;;5102928;28;19935;-81
2022/01/11 12:40:47;;;;;;;;;;;0.10;99.90;;;;;;5101072;28;19924;-81
2022/01/11 12:43:18;;;;;;;;;;;0.20;99.90;;;;;;5100927;28;19979;-81
2022/01/11 12:46:06;;;;;;;;;;;0.30;99.90;;;;;;5101483;28;19924;-81
2022/01/11 12:48:53;;;;;;;;;;;0.40;99.90;;;;;;5093571;28;19967;-81
2022/01/11 12:51:28;;;;;;;;;;;0.40;99.90;;;;;;5101540;28;19931;-80
2022/01/11 12:54:17;;;;;;;;;;;0.40;99.90;;;;;;5100583;28;19924;-80
2022/01/11 12:56:46;;;;;;;;;;;0.40;99.90;;;;;;5101660;28;20294;-80
2022/01/11 12:59:13;;;;;;;;;;;0.40;99.90;;;;;;5100735;28;19924;-80
2022/01/11 13:01:47;;;;;;;;;;;0.40;99.90;;;;;;5100048;28;20279;-80
2022/01/11 13:04:15;;;;;;;;;;;0.40;99.90;;;;;;5101924;28;19924;-81
2022/01/11 13:06:50;;;;;;;;;;;0.30;99.90;;;;;;5101540;28;20452;-80
2022/01/11 13:09:17;;;;;;;;;;;0.40;99.90;;;;;;5101631;28;20019;-80
2022/01/11 13:11:48;;;;;;;;;;;0.40;99.90;;;;;;5101938;28;19924;-81
2022/01/11 13:14:30;;;;;;;;;;;0.50;99.90;;;;;;5101238;28;19931;-80
2022/01/11 13:17:05;;;;;;;;;;;1.60;99.90;;;;;;5102942;28;19962;-80
2022/01/11 13:19:34;;;;;;;;;;;0.40;99.90;;;;;;5102353;28;19930;-83
2022/01/11 13:22:07;;;;;;;;;;;0.40;99.90;;;;;;5104433;28;19924;-80
2022/01/11 13:24:37;;;;;;;;;;;0.40;99.90;;;;;;5105625;28;19924;-80
2022/01/11 13:27:11;;;;;;;;;;;0.40;99.90;;;;;;5111649;28;20013;-80
2022/01/11 13:29:38;;;;;;;;;;;0.50;99.90;;;;;;5104922;28;19962;-80
2022/01/11 13:32:06;;;;;;;;;;;0.50;99.90;;;;;;5102689;28;19924;-80
2022/01/11 13:34:34;;;;;;;;;;;0.40;99.90;;;;;;5104809;28;19930;-81
2022/01/11 13:37:02;;;;;;;;;;;0.40;99.90;;;;;;5111675;28;19933;-80
2022/01/11 13:39:34;;;;;;;;;;;0.40;99.90;;;;;;5112157;28;19999;-79
2022/01/11 13:42:04;;;;;;;;;;;0.40;99.90;;;;;;5111695;28;19953;-80
2022/01/11 13:44:32;;;;;;;;;;;0.40;99.90;;;;;;5110523;28;19932;-80
2022/01/11 13:46:59;;;;;;;;;;;0.40;99.90;;;;;;5108775;28;20359;-79
2022/01/11 13:49:29;;;;;;;;;;;0.40;99.90;;;;;;5109024;28;19924;-80
2022/01/11 13:51:57;;;;;;;;;;;0.40;99.90;;;;;;5107435;28;20065;-81
2022/01/11 13:54:31;;;;;;;;;;;0.50;99.90;;;;;;5101307;28;19928;-80
2022/01/11 13:56:59;;;;;;;;;;;0.50;99.90;;;;;;5099150;28;19925;-80
2022/01/11 13:59:31;;;;;;;;;;;0.40;99.90;;;;;;5099153;28;19932;-82
2022/01/11 14:02:01;;;;;;;;;;;0.40;99.90;;;;;;5098733;28;19928;-81
2022/01/11 14:04:28;;;;;;;;;;;0.50;99.90;;;;;;5100138;28;19946;-81
2022/01/11 14:06:56;;;;;;;;;;;0.40;99.90;;;;;;5099304;28;19924;-80
2022/01/11 14:09:32;;;;;;;;;;;0.40;99.90;;;;;;5098778;28;19938;-80
2022/01/11 14:12:06;;;;;;;;;;;0.40;99.90;;;;;;5099995;28;19927;-81
2022/01/11 14:14:34;;;;;;;;;;;0.30;99.90;;;;;;5099721;28;19924;-81
2022/01/11 14:17:12;;;;;;;;;;;0.30;99.90;;;;;;5099302;28;19946;-81
2022/01/11 14:19:44;;;;;;;;;;;0.20;99.90;;;;;;5100933;28;19924;-81
2022/01/11 14:22:12;;;;;;;;;;;0.20;99.90;;;;;;5101029;28;19924;-80
2022/01/11 14:24:50;;;;;;;;;;;0.10;99.90;;;;;;5103608;28;20401;-80
2022/01/11 14:27:19;;;;;;;;;;;0.20;99.90;;;;;;5108746;28;20280;-80
2022/01/11 14:29:53;;;;;;;;;;;0.20;99.90;;;;;;5108067;28;19955;-80
2022/01/11 14:32:20;;;;;;;;;;;0.10;99.90;;;;;;5108455;28;19928;-79
2022/01/11 14:34:54;;;;;;;;;;;0.10;99.90;;;;;;5110225;28;19908;-80
2022/01/11 14:37:22;;;;;;;;;;;0.10;99.90;;;;;;5108808;28;19969;-80
2022/01/11 14:39:50;;;;;;;;;;;0.10;99.90;;;;;;5100518;28;19974;-81